sensor_id;sensor_type;location;lat;lon;timestamp;temperature;humidity
20504;DHT22;10410;51.046;6.980;2022-07-09T00:00:18;17.40;99.90
20504;DHT22;10410;51.046;6.980;2022-07-09T00:07:18;17.30;99.90
20504;DHT22;10410;51.046;6.980;2022-07-09T00:14:19;17.10;99.90
20504;DHT22;10410;51.046;6.980;2022-07-09T00:21:20;17.00;99.90
20504;DHT22;10410;51.046;6.980;2022-07-09T00:28:21;16.90;99.90
20504;DHT22;10410;51.046;6.980;2022-07-09T00:35:21;16.80;99.90
20504;DHT22;10410;51.046;6.980;2022-07-09T00:42:22;16.70;99.90
20504;DHT22;10410;51.046;6.980;2022-07-09T00:49:25;16.50;99.90
20504;DHT22;10410;51.046;6.980;2022-07-09T00:56:28;16.30;99.90
20504;DHT22;10410;51.046;6.980;2022-07-09T01:03:29;16.30;99.90
20504;DHT22;10410;51.046;6.980;2022-07-09T01:10:30;16.20;99.90
20504;DHT22;10410;51.046;6.980;2022-07-09T01:17:39;16.20;99.90
20504;DHT22;10410;51.046;6.980;2022-07-09T01:24:39;16.10;99.90
20504;DHT22;10410;51.046;6.980;2022-07-09T01:31:40;16.00;99.90
20504;DHT22;10410;51.046;6.980;2022-07-09T01:38:42;16.00;99.90
20504;DHT22;10410;51.046;6.980;2022-07-09T01:45:42;15.90;99.90
20504;DHT22;10410;51.046;6.980;2022-07-09T01:52:43;15.80;99.90
20504;DHT22;10410;51.046;6.980;2022-07-09T01:59:43;15.80;99.90
20504;DHT22;10410;51.046;6.980;2022-07-09T02:06:44;15.70;99.90
20504;DHT22;10410;51.046;6.980;2022-07-09T02:13:44;15.70;99.90
20504;DHT22;10410;51.046;6.980;2022-07-09T02:20:45;15.60;99.90
20504;DHT22;10410;51.046;6.980;2022-07-09T02:27:46;15.50;99.90
20504;DHT22;10410;51.046;6.980;2022-07-09T02:34:46;15.50;99.90
20504;DHT22;10410;51.046;6.980;2022-07-09T02:41:47;15.50;99.90
20504;DHT22;10410;51.046;6.980;2022-07-09T02:48:47;15.60;99.90
20504;DHT22;10410;51.046;6.980;2022-07-09T02:55:48;15.70;99.90
20504;DHT22;10410;51.046;6.980;2022-07-09T03:02:48;15.80;99.90
20504;DHT22;10410;51.046;6.980;2022-07-09T03:09:49;15.80;99.90
20504;DHT22;10410;51.046;6.980;2022-07-09T03:16:49;15.90;99.90
20504;DHT22;10410;51.046;6.980;2022-07-09T03:23:50;15.90;99.90
20504;DHT22;10410;51.046;6.980;2022-07-09T03:30:50;15.90;99.90
20504;DHT22;10410;51.046;6.980;2022-07-09T03:37:51;16.00;99.90
20504;DHT22;10410;51.046;6.980;2022-07-09T03:44:51;16.00;99.90
20504;DHT22;10410;51.046;6.980;2022-07-09T03:51:52;16.00;99.90
20504;DHT22;10410;51.046;6.980;2022-07-09T03:59:13;16.00;99.90
20504;DHT22;10410;51.046;6.980;2022-07-09T04:06:13;15.90;99.90
20504;DHT22;10410;51.046;6.980;2022-07-09T04:13:13;15.80;99.90
20504;DHT22;10410;51.046;6.980;2022-07-09T04:20:14;15.70;99.90
20504;DHT22;10410;51.046;6.980;2022-07-09T04:27:14;15.70;99.90
20504;DHT22;10410;51.046;6.980;2022-07-09T04:34:15;15.70;99.90
20504;DHT22;10410;51.046;6.980;2022-07-09T04:41:16;15.80;99.90
20504;DHT22;10410;51.046;6.980;2022-07-09T04:48:16;15.80;99.90
20504;DHT22;10410;51.046;6.980;2022-07-09T04:55:18;15.90;99.90
20504;DHT22;10410;51.046;6.980;2022-07-09T05:02:19;16.00;99.90
20504;DHT22;10410;51.046;6.980;2022-07-09T05:09:19;16.10;99.90
20504;DHT22;10410;51.046;6.980;2022-07-09T05:16:20;16.20;99.90
20504;DHT22;10410;51.046;6.980;2022-07-09T05:23:21;16.30;99.90
20504;DHT22;10410;51.046;6.980;2022-07-09T05:30:21;16.40;99.90
20504;DHT22;10410;51.046;6.980;2022-07-09T05:37:21;16.60;99.90
20504;DHT22;10410;51.046;6.980;2022-07-09T05:44:22;16.80;99.90
20504;DHT22;10410;51.046;6.980;2022-07-09T05:51:24;17.00;99.90
20504;DHT22;10410;51.046;6.980;2022-07-09T05:58:25;17.20;99.90
20504;DHT22;10410;51.046;6.980;2022-07-09T06:05:26;17.30;99.90
20504;DHT22;10410;51.046;6.980;2022-07-09T06:12:27;17.40;99.90
20504;DHT22;10410;51.046;6.980;2022-07-09T06:19:27;17.60;99.90
20504;DHT22;10410;51.046;6.980;2022-07-09T06:26:27;17.60;99.90
20504;DHT22;10410;51.046;6.980;2022-07-09T06:33:28;17.80;99.90
20504;DHT22;10410;51.046;6.980;2022-07-09T06:40:28;17.90;99.90
20504;DHT22;10410;51.046;6.980;2022-07-09T06:47:29;18.10;99.90
20504;DHT22;10410;51.046;6.980;2022-07-09T06:54:30;18.40;99.90
20504;DHT22;10410;51.046;6.980;2022-07-09T07:01:30;18.60;99.90
20504;DHT22;10410;51.046;6.980;2022-07-09T07:08:31;19.00;99.90
20504;DHT22;10410;51.046;6.980;2022-07-09T07:15:32;19.30;99.90
20504;DHT22;10410;51.046;6.980;2022-07-09T07:22:32;19.40;99.90
20504;DHT22;10410;51.046;6.980;2022-07-09T07:29:35;19.60;99.90
20504;DHT22;10410;51.046;6.980;2022-07-09T07:36:35;19.70;99.90
20504;DHT22;10410;51.046;6.980;2022-07-09T07:43:36;19.70;99.90
20504;DHT22;10410;51.046;6.980;2022-07-09T07:50:37;19.80;99.90
20504;DHT22;10410;51.046;6.980;2022-07-09T07:57:38;19.90;99.90
20504;DHT22;10410;51.046;6.980;2022-07-09T08:04:39;20.10;99.90
20504;DHT22;10410;51.046;6.980;2022-07-09T08:11:39;20.30;99.90
20504;DHT22;10410;51.046;6.980;2022-07-09T08:18:39;20.60;99.90
20504;DHT22;10410;51.046;6.980;2022-07-09T08:25:41;20.70;99.90
20504;DHT22;10410;51.046;6.980;2022-07-09T08:32:42;20.90;99.90
20504;DHT22;10410;51.046;6.980;2022-07-09T08:39:42;21.00;99.90
20504;DHT22;10410;51.046;6.980;2022-07-09T08:46:43;21.00;99.90
20504;DHT22;10410;51.046;6.980;2022-07-09T08:53:44;21.10;99.90
20504;DHT22;10410;51.046;6.980;2022-07-09T09:00:45;21.10;99.90
20504;DHT22;10410;51.046;6.980;2022-07-09T09:07:48;21.30;99.90
20504;DHT22;10410;51.046;6.980;2022-07-09T09:14:49;21.70;99.90
20504;DHT22;10410;51.046;6.980;2022-07-09T09:21:52;22.00;99.90
20504;DHT22;10410;51.046;6.980;2022-07-09T09:28:57;21.90;99.90
20504;DHT22;10410;51.046;6.980;2022-07-09T09:35:58;22.10;99.90
20504;DHT22;10410;51.046;6.980;2022-07-09T09:43:01;22.10;99.90
20504;DHT22;10410;51.046;6.980;2022-07-09T09:50:02;22.20;99.90
20504;DHT22;10410;51.046;6.980;2022-07-09T09:57:06;22.40;99.90
20504;DHT22;10410;51.046;6.980;2022-07-09T10:04:07;22.70;99.90
20504;DHT22;10410;51.046;6.980;2022-07-09T10:11:08;23.00;99.90
20504;DHT22;10410;51.046;6.980;2022-07-09T10:18:11;23.40;99.90
20504;DHT22;10410;51.046;6.980;2022-07-09T10:25:22;23.50;99.90
20504;DHT22;10410;51.046;6.980;2022-07-09T10:32:33;23.70;99.90
20504;DHT22;10410;51.046;6.980;2022-07-09T10:39:35;23.80;99.90
20504;DHT22;10410;51.046;6.980;2022-07-09T10:46:37;23.90;99.90
20504;DHT22;10410;51.046;6.980;2022-07-09T10:53:37;24.10;99.90
20504;DHT22;10410;51.046;6.980;2022-07-09T11:00:38;24.20;99.90
20504;DHT22;10410;51.046;6.980;2022-07-09T11:07:38;24.10;99.90
20504;DHT22;10410;51.046;6.980;2022-07-09T11:14:46;23.90;99.90
20504;DHT22;10410;51.046;6.980;2022-07-09T11:21:46;24.00;99.90
20504;DHT22;10410;51.046;6.980;2022-07-09T11:28:47;24.00;99.90
20504;DHT22;10410;51.046;6.980;2022-07-09T11:35:48;24.00;99.90
20504;DHT22;10410;51.046;6.980;2022-07-09T11:42:50;23.90;99.90
20504;DHT22;10410;51.046;6.980;2022-07-09T11:49:50;23.70;99.90
20504;DHT22;10410;51.046;6.980;2022-07-09T11:56:51;23.80;99.90
20504;DHT22;10410;51.046;6.980;2022-07-09T12:03:51;24.30;99.90
20504;DHT22;10410;51.046;6.980;2022-07-09T12:10:52;24.80;99.90
20504;DHT22;10410;51.046;6.980;2022-07-09T12:17:53;25.20;99.30
20504;DHT22;10410;51.046;6.980;2022-07-09T12:24:54;25.50;97.60
20504;DHT22;10410;51.046;6.980;2022-07-09T12:31:55;25.60;96.30
20504;DHT22;10410;51.046;6.980;2022-07-09T12:38:55;25.40;96.00
20504;DHT22;10410;51.046;6.980;2022-07-09T12:45:56;24.90;96.30
20504;DHT22;10410;51.046;6.980;2022-07-09T12:52:57;25.00;96.70
20504;DHT22;10410;51.046;6.980;2022-07-09T12:59:57;25.30;96.30
20504;DHT22;10410;51.046;6.980;2022-07-09T13:06:57;25.00;96.00
20504;DHT22;10410;51.046;6.980;2022-07-09T13:13:58;24.40;97.50
20504;DHT22;10410;51.046;6.980;2022-07-09T13:20:58;24.30;98.10
20504;DHT22;10410;51.046;6.980;2022-07-09T13:27:58;24.00;98.90
20504;DHT22;10410;51.046;6.980;2022-07-09T13:34:59;23.80;99.90
20504;DHT22;10410;51.046;6.980;2022-07-09T13:41:59;23.50;99.90
20504;DHT22;10410;51.046;6.980;2022-07-09T13:49:00;23.20;99.90
20504;DHT22;10410;51.046;6.980;2022-07-09T13:56:00;23.00;99.90
20504;DHT22;10410;51.046;6.980;2022-07-09T14:03:01;22.70;99.90
20504;DHT22;10410;51.046;6.980;2022-07-09T14:10:03;23.10;99.90
20504;DHT22;10410;51.046;6.980;2022-07-09T14:17:04;24.00;99.90
20504;DHT22;10410;51.046;6.980;2022-07-09T14:24:05;24.10;99.90
20504;DHT22;10410;51.046;6.980;2022-07-09T14:31:05;23.90;99.90
20504;DHT22;10410;51.046;6.980;2022-07-09T14:38:06;23.60;99.90
20504;DHT22;10410;51.046;6.980;2022-07-09T14:45:07;23.50;99.90
20504;DHT22;10410;51.046;6.980;2022-07-09T14:52:13;24.10;99.90
20504;DHT22;10410;51.046;6.980;2022-07-09T14:59:15;24.50;99.90
20504;DHT22;10410;51.046;6.980;2022-07-09T15:06:17;24.50;99.90
20504;DHT22;10410;51.046;6.980;2022-07-09T15:13:18;24.30;99.90
20504;DHT22;10410;51.046;6.980;2022-07-09T15:20:18;24.20;99.90
20504;DHT22;10410;51.046;6.980;2022-07-09T15:27:19;23.90;99.90
20504;DHT22;10410;51.046;6.980;2022-07-09T15:34:19;23.80;99.90
20504;DHT22;10410;51.046;6.980;2022-07-09T15:41:20;23.80;99.90
20504;DHT22;10410;51.046;6.980;2022-07-09T15:48:20;24.20;99.90
20504;DHT22;10410;51.046;6.980;2022-07-09T15:55:22;24.70;98.70
20504;DHT22;10410;51.046;6.980;2022-07-09T16:02:22;25.10;97.60
20504;DHT22;10410;51.046;6.980;2022-07-09T16:09:23;24.70;97.00
20504;DHT22;10410;51.046;6.980;2022-07-09T16:16:24;24.20;96.90
20504;DHT22;10410;51.046;6.980;2022-07-09T16:23:24;24.00;96.70
20504;DHT22;10410;51.046;6.980;2022-07-09T16:30:24;23.80;96.70
20504;DHT22;10410;51.046;6.980;2022-07-09T16:37:27;23.90;96.30
20504;DHT22;10410;51.046;6.980;2022-07-09T16:44:30;24.00;95.60
20504;DHT22;10410;51.046;6.980;2022-07-09T16:51:31;23.80;95.20
20504;DHT22;10410;51.046;6.980;2022-07-09T16:58:32;23.60;95.70
20504;DHT22;10410;51.046;6.980;2022-07-09T17:05:33;23.70;95.10
20504;DHT22;10410;51.046;6.980;2022-07-09T17:12:33;23.30;93.70
20504;DHT22;10410;51.046;6.980;2022-07-09T17:19:36;23.20;94.10
20504;DHT22;10410;51.046;6.980;2022-07-09T17:26:36;23.20;93.90
20504;DHT22;10410;51.046;6.980;2022-07-09T17:33:37;23.60;93.20
20504;DHT22;10410;51.046;6.980;2022-07-09T17:40:37;24.00;92.10
20504;DHT22;10410;51.046;6.980;2022-07-09T17:47:38;23.80;91.20
20504;DHT22;10410;51.046;6.980;2022-07-09T17:54:38;23.50;91.10
20504;DHT22;10410;51.046;6.980;2022-07-09T18:01:43;23.40;88.70
20504;DHT22;10410;51.046;6.980;2022-07-09T18:08:43;23.10;87.20
20504;DHT22;10410;51.046;6.980;2022-07-09T18:15:43;22.90;87.30
20504;DHT22;10410;51.046;6.980;2022-07-09T18:22:44;22.70;88.90
20504;DHT22;10410;51.046;6.980;2022-07-09T18:29:44;22.30;90.00
20504;DHT22;10410;51.046;6.980;2022-07-09T18:36:45;22.10;91.30
20504;DHT22;10410;51.046;6.980;2022-07-09T18:43:45;21.90;92.90
20504;DHT22;10410;51.046;6.980;2022-07-09T18:50:46;21.90;93.90
20504;DHT22;10410;51.046;6.980;2022-07-09T18:57:46;21.70;94.90
20504;DHT22;10410;51.046;6.980;2022-07-09T19:04:47;21.50;95.20
20504;DHT22;10410;51.046;6.980;2022-07-09T19:11:47;21.30;95.60
20504;DHT22;10410;51.046;6.980;2022-07-09T19:18:48;21.00;96.20
20504;DHT22;10410;51.046;6.980;2022-07-09T19:25:49;20.80;97.00
20504;DHT22;10410;51.046;6.980;2022-07-09T19:32:49;20.50;97.40
20504;DHT22;10410;51.046;6.980;2022-07-09T19:40:09;20.30;97.90
20504;DHT22;10410;51.046;6.980;2022-07-09T19:47:09;20.10;98.10
20504;DHT22;10410;51.046;6.980;2022-07-09T19:54:09;19.80;98.30
20504;DHT22;10410;51.046;6.980;2022-07-09T20:01:12;19.60;98.70
20504;DHT22;10410;51.046;6.980;2022-07-09T20:08:13;19.30;99.30
20504;DHT22;10410;51.046;6.980;2022-07-09T20:15:13;19.10;99.60
20504;DHT22;10410;51.046;6.980;2022-07-09T20:22:14;18.90;99.90
20504;DHT22;10410;51.046;6.980;2022-07-09T20:29:14;18.60;99.90
20504;DHT22;10410;51.046;6.980;2022-07-09T20:36:15;18.40;99.90
20504;DHT22;10410;51.046;6.980;2022-07-09T20:43:16;18.20;99.90
20504;DHT22;10410;51.046;6.980;2022-07-09T20:50:17;18.00;99.90
20504;DHT22;10410;51.046;6.980;2022-07-09T20:57:18;17.90;99.90
20504;DHT22;10410;51.046;6.980;2022-07-09T21:04:18;17.70;99.90
20504;DHT22;10410;51.046;6.980;2022-07-09T21:11:19;17.50;99.90
20504;DHT22;10410;51.046;6.980;2022-07-09T21:18:19;17.30;99.90
20504;DHT22;10410;51.046;6.980;2022-07-09T21:25:38;17.20;99.90
20504;DHT22;10410;51.046;6.980;2022-07-09T21:32:39;16.90;99.90
20504;DHT22;10410;51.046;6.980;2022-07-09T21:39:39;16.80;99.90
20504;DHT22;10410;51.046;6.980;2022-07-09T21:46:39;16.70;99.90
20504;DHT22;10410;51.046;6.980;2022-07-09T21:53:40;16.50;99.90
20504;DHT22;10410;51.046;6.980;2022-07-09T22:00:51;16.40;99.90
20504;DHT22;10410;51.046;6.980;2022-07-09T22:07:53;16.30;99.90
20504;DHT22;10410;51.046;6.980;2022-07-09T22:14:56;16.20;99.90
20504;DHT22;10410;51.046;6.980;2022-07-09T22:21:56;16.00;99.90
20504;DHT22;10410;51.046;6.980;2022-07-09T22:28:56;15.80;99.90
20504;DHT22;10410;51.046;6.980;2022-07-09T22:35:57;15.70;99.90
20504;DHT22;10410;51.046;6.980;2022-07-09T22:42:58;15.60;99.90
20504;DHT22;10410;51.046;6.980;2022-07-09T22:49:58;15.50;99.90
20504;DHT22;10410;51.046;6.980;2022-07-09T22:56:59;15.40;99.90
20504;DHT22;10410;51.046;6.980;2022-07-09T23:03:59;15.30;99.90
20504;DHT22;10410;51.046;6.980;2022-07-09T23:11:00;15.10;99.90
20504;DHT22;10410;51.046;6.980;2022-07-09T23:18:00;15.00;99.90
20504;DHT22;10410;51.046;6.980;2022-07-09T23:25:00;14.90;99.90
20504;DHT22;10410;51.046;6.980;2022-07-09T23:32:02;14.80;99.90
20504;DHT22;10410;51.046;6.980;2022-07-09T23:39:03;14.70;99.90
20504;DHT22;10410;51.046;6.980;2022-07-09T23:46:03;14.60;99.90
20504;DHT22;10410;51.046;6.980;2022-07-09T23:53:04;14.50;99.90
